createdAt,value
2023-05-14T00:02:04.043Z,72.02
2023-05-14T00:05:41.613Z,71.85
2023-05-14T00:09:19.927Z,71.92
2023-05-14T00:12:57.074Z,72.05
2023-05-14T00:16:34.668Z,71.60
2023-05-14T00:20:12.773Z,71.28
2023-05-14T00:23:50.028Z,71.28
2023-05-14T00:27:27.945Z,71.51
2023-05-14T00:31:05.294Z,71.61
2023-05-14T00:34:43.082Z,71.78
2023-05-14T00:38:21.159Z,71.47
2023-05-14T00:41:58.380Z,71.52
2023-05-14T00:45:36.138Z,71.57
2023-05-14T00:49:14.681Z,71.70
2023-05-14T00:52:51.352Z,71.53
2023-05-14T00:56:30.031Z,71.58
2023-05-14T01:00:07.730Z,72.21
2023-05-14T01:04:06.166Z,72.65
2023-05-14T01:07:53.311Z,72.46
2023-05-14T01:11:19.449Z,72.20
2023-05-14T01:14:49.310Z,72.99
2023-05-14T01:18:25.385Z,72.80
2023-05-14T01:22:01.492Z,72.28
2023-05-14T01:25:39.749Z,72.90
2023-05-14T01:29:22.757Z,73.04
2023-05-14T01:32:59.037Z,73.07
2023-05-14T01:36:33.748Z,73.03
2023-05-14T01:40:11.739Z,73.92
2023-05-14T01:43:48.113Z,73.69
2023-05-14T01:47:26.018Z,73.35
2023-05-14T01:51:04.246Z,74.09
2023-05-14T01:54:41.257Z,73.71
2023-05-14T01:58:18.858Z,73.52
2023-05-14T02:01:56.330Z,72.98
2023-05-14T02:05:33.926Z,73.02
2023-05-14T02:09:12.102Z,73.05
2023-05-14T02:12:49.734Z,72.73
2023-05-14T02:16:27.105Z,72.60
2023-05-14T02:20:05.038Z,72.55
2023-05-14T02:23:43.134Z,72.76
2023-05-14T02:27:19.952Z,73.23
2023-05-14T02:31:00.197Z,73.28
2023-05-14T02:34:35.798Z,73.63
2023-05-14T02:38:13.366Z,73.90
2023-05-14T02:41:50.623Z,73.93
2023-05-14T02:45:28.469Z,74.07
2023-05-14T02:49:06.499Z,73.58
2023-05-14T02:52:43.780Z,73.53
2023-05-14T02:56:21.412Z,73.69
2023-05-14T02:59:59.089Z,73.49
2023-05-14T03:03:36.797Z,73.92
2023-05-14T03:07:14.465Z,73.62
2023-05-14T03:10:52.011Z,73.77
2023-05-14T03:14:29.757Z,73.91
2023-05-14T03:18:07.541Z,73.87
2023-05-14T03:21:45.141Z,74.16
2023-05-14T03:25:22.582Z,74.23
2023-05-14T03:29:00.526Z,74.31
2023-05-14T03:32:38.317Z,74.42
2023-05-14T03:36:15.997Z,74.89
2023-05-14T03:39:53.284Z,74.92
2023-05-14T03:43:31.290Z,75.69
2023-05-14T03:47:08.685Z,75.83
2023-05-14T03:50:46.617Z,76.99
2023-05-14T03:54:23.911Z,76.28
2023-05-14T03:58:02.740Z,76.76
2023-05-14T04:01:39.216Z,75.82
2023-05-14T04:05:17.347Z,75.54
2023-05-14T04:08:54.890Z,75.61
2023-05-14T04:12:32.980Z,75.58
2023-05-14T04:16:10.431Z,75.71
2023-05-14T04:19:48.183Z,75.92
2023-05-14T04:23:25.774Z,75.83
2023-05-14T04:27:04.461Z,75.97
2023-05-14T04:30:40.747Z,75.72
2023-05-14T04:34:20.860Z,76.04
2023-05-14T04:37:56.088Z,75.80
2023-05-14T04:41:33.948Z,75.73
2023-05-14T04:45:13.626Z,75.59
2023-05-14T04:48:50.522Z,75.71
2023-05-14T04:52:26.997Z,75.46
2023-05-14T04:56:05.092Z,75.11
2023-05-14T04:59:42.518Z,74.98
2023-05-14T05:03:20.201Z,74.55
2023-05-14T05:06:57.693Z,74.09
2023-05-14T05:10:35.145Z,73.72
2023-05-14T05:14:12.915Z,73.37
2023-05-14T05:17:50.651Z,73.13
2023-05-14T05:21:28.277Z,72.82
2023-05-14T05:25:07.239Z,72.51
2023-05-14T05:28:43.515Z,72.07
2023-05-14T05:32:21.579Z,71.77
2023-05-14T05:35:58.911Z,71.16
2023-05-14T05:39:37.007Z,70.70
2023-05-14T05:43:15.717Z,70.54
2023-05-14T05:46:52.109Z,70.23
2023-05-14T05:50:31.865Z,69.64
2023-05-14T05:54:07.425Z,69.37
2023-05-14T05:57:45.131Z,68.85
2023-05-14T06:01:22.825Z,68.53
2023-05-14T06:05:00.546Z,67.92
2023-05-14T06:08:38.228Z,67.32
2023-05-14T06:12:16.224Z,66.54
2023-05-14T06:15:53.552Z,66.02
2023-05-14T06:19:32.250Z,65.59
2023-05-14T06:23:08.814Z,65.22
2023-05-14T06:26:46.464Z,65.07
2023-05-14T06:30:24.802Z,64.67
2023-05-14T06:34:01.896Z,64.24
2023-05-14T06:37:39.845Z,63.71
2023-05-14T06:41:17.709Z,63.70
2023-05-14T06:44:57.171Z,63.43
2023-05-14T06:48:33.012Z,62.93
2023-05-14T06:52:10.523Z,62.74
2023-05-14T06:55:48.885Z,62.73
2023-05-14T06:59:26.529Z,62.81
2023-05-14T07:03:03.492Z,62.72
2023-05-14T07:06:41.110Z,62.17
2023-05-14T07:10:19.104Z,61.88
2023-05-14T07:13:56.627Z,61.17
2023-05-14T07:17:34.307Z,60.56
2023-05-14T07:21:12.302Z,60.47
2023-05-14T07:24:50.242Z,60.48
2023-05-14T07:28:26.997Z,60.27
2023-05-14T07:32:04.978Z,60.70
2023-05-14T07:39:20.470Z,61.38
2023-05-14T07:42:59.239Z,61.37
2023-05-14T07:46:37.442Z,61.21
2023-05-14T07:50:22.619Z,61.27
2023-05-14T07:53:51.566Z,60.76
2023-05-14T07:57:28.356Z,60.89
2023-05-14T08:01:12.413Z,61.24
2023-05-14T08:05:03.966Z,61.17
2023-05-14T08:08:21.968Z,60.99
2023-05-14T08:12:01.539Z,60.77
2023-05-14T08:15:37.537Z,60.39
2023-05-14T08:19:17.438Z,60.12
2023-05-14T08:22:52.182Z,60.38
2023-05-14T08:26:29.742Z,60.46
2023-05-14T08:30:09.377Z,60.20
2023-05-14T08:33:52.046Z,59.93
2023-05-14T08:37:51.502Z,59.86
2023-05-14T08:41:01.073Z,59.70
2023-05-14T08:45:04.173Z,59.57
2023-05-14T08:48:23.114Z,59.24
2023-05-14T08:51:57.729Z,59.32
2023-05-14T08:55:37.792Z,58.98
2023-05-14T08:59:13.897Z,59.34
2023-05-14T09:02:52.095Z,59.36
2023-05-14T09:06:29.138Z,59.13
2023-05-14T09:10:06.961Z,59.22
2023-05-14T09:13:43.680Z,59.17
2023-05-14T09:17:21.450Z,59.26
2023-05-14T09:20:59.128Z,59.21
2023-05-14T09:24:36.532Z,59.24
2023-05-14T09:28:17.950Z,59.35
2023-05-14T09:31:52.635Z,59.58
2023-05-14T09:35:32.732Z,59.57
2023-05-14T09:39:10.618Z,59.69
2023-05-14T09:42:45.711Z,59.43
2023-05-14T09:46:32.562Z,59.43
2023-05-14T09:50:05.630Z,59.07
2023-05-14T09:53:41.643Z,58.89
2023-05-14T09:57:15.566Z,58.88
2023-05-14T10:00:54.749Z,58.63
2023-05-14T10:04:33.506Z,58.95
2023-05-14T10:08:20.065Z,59.02
2023-05-14T10:15:40.935Z,59.23
2023-05-14T10:19:08.122Z,59.22
2023-05-14T10:22:40.392Z,59.34
2023-05-14T10:26:17.903Z,59.47
2023-05-14T10:29:56.576Z,59.56
2023-05-14T10:33:48.366Z,59.41
2023-05-14T10:37:25.775Z,59.44
2023-05-14T10:40:48.512Z,59.65
2023-05-14T10:44:26.124Z,59.69
2023-05-14T10:48:03.490Z,59.80
2023-05-14T10:51:42.551Z,59.93
2023-05-14T10:55:19.104Z,59.96
2023-05-14T10:59:00.173Z,59.78
2023-05-14T11:02:40.601Z,59.54
2023-05-14T11:06:14.703Z,59.41
2023-05-14T11:09:51.546Z,59.35
2023-05-14T11:13:27.708Z,59.54
2023-05-14T11:17:06.822Z,59.69
2023-05-14T11:20:42.569Z,59.74
2023-05-14T11:24:20.089Z,59.88
2023-05-14T11:28:00.921Z,60.04
2023-05-14T11:31:36.039Z,60.06
2023-05-14T11:35:14.250Z,59.93
2023-05-14T11:38:52.501Z,59.09
2023-05-14T11:42:28.638Z,58.74
2023-05-14T11:46:06.504Z,58.83
2023-05-14T11:49:43.974Z,58.99
2023-05-14T11:53:31.141Z,59.19
2023-05-14T11:57:02.532Z,59.55
2023-05-14T12:00:38.248Z,59.91
2023-05-14T12:04:14.772Z,60.40
2023-05-14T12:07:52.650Z,60.80
2023-05-14T12:11:33.115Z,61.04
2023-05-14T12:15:13.516Z,61.49
2023-05-14T12:18:45.249Z,61.80
2023-05-14T12:22:23.585Z,62.32
2023-05-14T12:26:06.706Z,62.39
2023-05-14T12:29:39.128Z,62.44
2023-05-14T12:33:16.585Z,62.36
2023-05-14T12:37:12.506Z,62.28
2023-05-14T12:40:31.281Z,62.23
2023-05-14T12:44:09.866Z,61.93
2023-05-14T12:48:06.246Z,61.63
2023-05-14T12:51:24.435Z,61.96
2023-05-14T12:55:02.046Z,61.41
2023-05-14T12:58:40.149Z,61.25
2023-05-14T13:02:17.997Z,61.33
2023-05-14T13:05:55.447Z,61.33
2023-05-14T13:09:32.832Z,61.51
2023-05-14T13:13:11.998Z,61.41
2023-05-14T13:20:28.326Z,60.67
2023-05-14T13:24:03.490Z,60.42
2023-05-14T13:27:41.303Z,60.26
2023-05-14T13:31:18.502Z,60.18
2023-05-14T13:34:56.989Z,59.91
2023-05-14T13:38:34.800Z,59.68
2023-05-14T13:42:11.786Z,59.81
2023-05-14T13:45:51.516Z,59.70
2023-05-14T13:49:27.578Z,59.59
2023-05-14T13:53:05.047Z,59.60
2023-05-14T13:56:42.666Z,59.67
2023-05-14T14:00:20.165Z,60.06
2023-05-14T14:03:58.503Z,60.24
2023-05-14T14:07:35.699Z,60.54
2023-05-14T14:11:13.987Z,60.70
2023-05-14T14:14:53.085Z,60.78
2023-05-14T14:18:28.559Z,60.98
2023-05-14T14:22:06.390Z,61.12
2023-05-14T14:25:43.961Z,61.32
2023-05-14T14:29:24.146Z,61.24
2023-05-14T14:33:01.487Z,61.09
2023-05-14T14:36:38.283Z,60.88
2023-05-14T14:40:34.008Z,60.26
2023-05-14T14:43:52.592Z,60.00
2023-05-14T14:47:30.497Z,60.28
2023-05-14T14:51:11.642Z,61.12
2023-05-14T14:54:45.162Z,60.78
2023-05-14T14:58:24.009Z,59.32
2023-05-14T15:02:00.684Z,59.64
2023-05-14T15:05:38.494Z,59.92
2023-05-14T15:09:16.363Z,59.68
2023-05-14T15:12:54.675Z,58.91
2023-05-14T15:16:31.825Z,58.30
2023-05-14T15:20:10.616Z,58.37
2023-05-14T15:23:47.042Z,58.94
2023-05-14T15:27:24.626Z,59.36
2023-05-14T15:31:21.712Z,59.32
2023-05-14T15:35:49.367Z,58.61
2023-05-14T15:39:10.474Z,58.51
2023-05-14T15:42:44.257Z,58.09
2023-05-14T15:46:21.844Z,58.22
2023-05-14T15:49:57.995Z,57.84
2023-05-14T15:53:35.503Z,57.78
2023-05-14T15:57:14.025Z,57.81
2023-05-14T16:00:51.346Z,58.07
2023-05-14T16:04:28.710Z,58.21
2023-05-14T16:08:07.057Z,58.82
2023-05-14T16:11:43.914Z,59.34
2023-05-14T16:15:21.630Z,59.63
2023-05-14T16:18:59.604Z,60.06
2023-05-14T16:22:37.482Z,60.05
2023-05-14T16:26:14.534Z,59.69
2023-05-14T16:29:52.387Z,59.39
2023-05-14T16:33:29.999Z,59.50
2023-05-14T16:37:08.222Z,59.64
2023-05-14T16:40:45.540Z,59.32
2023-05-14T16:44:23.195Z,59.44
2023-05-14T16:48:01.567Z,59.77
2023-05-14T16:51:43.165Z,60.23
2023-05-14T16:55:16.606Z,60.66
2023-05-14T16:58:54.038Z,61.15
2023-05-14T17:02:33.268Z,61.46
2023-05-14T17:06:10.259Z,61.75
2023-05-14T17:09:46.872Z,61.87
2023-05-14T17:13:24.297Z,62.18
2023-05-14T17:17:02.456Z,62.25
2023-05-14T17:20:40.014Z,62.31
2023-05-14T17:24:17.221Z,62.12
2023-05-14T17:27:55.065Z,61.73
2023-05-14T17:31:32.849Z,61.59
2023-05-14T17:35:11.844Z,61.84
2023-05-14T17:38:48.485Z,62.20
2023-05-14T17:42:25.932Z,62.62
2023-05-14T17:46:03.993Z,62.91
2023-05-14T17:49:40.984Z,63.22
2023-05-14T17:53:19.132Z,63.21
2023-05-14T17:56:56.864Z,63.30
2023-05-14T18:00:34.683Z,63.88
2023-05-14T18:04:12.314Z,64.02
2023-05-14T18:07:49.542Z,64.26
2023-05-14T18:11:46.523Z,64.47
2023-05-14T18:15:05.135Z,64.75
2023-05-14T18:18:42.845Z,65.10
2023-05-14T18:22:21.751Z,65.46
2023-05-14T18:25:58.093Z,65.51
2023-05-14T18:29:35.452Z,65.29
2023-05-14T18:33:13.226Z,65.46
2023-05-14T18:36:51.125Z,65.42
2023-05-14T18:40:28.887Z,65.21
2023-05-14T18:44:06.404Z,65.82
2023-05-14T18:47:43.981Z,66.12
2023-05-14T18:51:21.661Z,66.43
2023-05-14T18:54:59.614Z,66.27
2023-05-14T18:58:37.093Z,66.08
2023-05-14T19:02:15.265Z,66.10
2023-05-14T19:05:53.935Z,66.14
2023-05-14T19:09:30.317Z,66.31
2023-05-14T19:13:07.918Z,66.54
2023-05-14T19:16:45.149Z,66.85
2023-05-14T19:20:23.181Z,67.14
2023-05-14T19:24:00.543Z,67.24
2023-05-14T19:27:38.942Z,67.47
2023-05-14T19:31:16.253Z,67.83
2023-05-14T19:34:53.717Z,68.44
2023-05-14T19:38:31.598Z,68.95
2023-05-14T19:42:09.198Z,69.17
2023-05-14T19:45:47.056Z,69.33
2023-05-14T19:49:24.454Z,69.55
2023-05-14T19:53:02.227Z,69.42
2023-05-14T19:56:40.552Z,69.45
2023-05-14T20:00:17.713Z,69.93
2023-05-14T20:03:55.258Z,70.37
2023-05-14T20:07:54.146Z,71.14
2023-05-14T20:11:10.192Z,71.06
2023-05-14T20:14:48.315Z,71.32
2023-05-14T20:18:26.111Z,71.54
2023-05-14T20:22:03.946Z,71.68
2023-05-14T20:25:41.660Z,71.72
2023-05-14T20:29:18.646Z,71.85
2023-05-14T20:32:56.795Z,72.11
2023-05-14T20:36:34.735Z,72.42
2023-05-14T20:40:14.485Z,72.85
2023-05-14T20:43:49.558Z,73.10
2023-05-14T20:47:30.552Z,73.55
2023-05-14T20:51:06.799Z,73.86
2023-05-14T20:54:43.223Z,74.08
2023-05-14T20:58:20.999Z,74.28
2023-05-14T21:01:58.537Z,74.44
2023-05-14T21:05:35.416Z,74.48
2023-05-14T21:09:13.499Z,74.34
2023-05-14T21:12:51.758Z,74.24
2023-05-14T21:16:28.566Z,74.57
2023-05-14T21:20:07.061Z,73.70
2023-05-14T21:24:02.963Z,73.79
2023-05-14T21:27:40.290Z,74.69
2023-05-14T21:30:59.375Z,73.63
2023-05-14T21:34:36.735Z,72.08
2023-05-14T21:38:15.040Z,70.76
2023-05-14T21:41:52.193Z,71.31
2023-05-14T21:45:29.944Z,71.09
2023-05-14T21:49:07.513Z,71.68
2023-05-14T21:52:45.560Z,72.12
2023-05-14T21:56:22.973Z,71.62
2023-05-14T22:00:00.961Z,71.10
2023-05-14T22:03:38.399Z,70.68
2023-05-14T22:07:16.330Z,70.50
2023-05-14T22:10:53.671Z,71.43
2023-05-14T22:14:31.595Z,71.06
2023-05-14T22:18:08.987Z,70.62
2023-05-14T22:21:47.042Z,70.35
2023-05-14T22:25:24.427Z,71.05
2023-05-14T22:29:02.198Z,72.22
2023-05-14T22:32:39.940Z,72.57
2023-05-14T22:36:17.618Z,73.17
2023-05-14T22:39:54.924Z,73.09
2023-05-14T22:43:32.972Z,73.42
2023-05-14T22:47:10.735Z,73.55
2023-05-14T22:50:47.980Z,73.64
2023-05-14T22:54:25.543Z,73.88
2023-05-14T22:58:04.082Z,73.70
2023-05-14T23:01:41.163Z,73.52
2023-05-14T23:05:18.720Z,73.36
2023-05-14T23:08:56.397Z,73.03
2023-05-14T23:12:34.184Z,72.58
2023-05-14T23:16:11.727Z,73.02
2023-05-14T23:19:49.589Z,73.13
2023-05-14T23:23:26.996Z,73.15
2023-05-14T23:27:05.366Z,73.31
2023-05-14T23:30:42.537Z,73.38
2023-05-14T23:34:22.180Z,73.18
2023-05-14T23:37:57.722Z,73.20
2023-05-14T23:41:35.645Z,73.64
2023-05-14T23:45:13.875Z,73.52
2023-05-14T23:48:52.371Z,73.69
2023-05-14T23:52:28.678Z,73.72
2023-05-14T23:56:06.482Z,73.56
2023-05-14T23:59:46.257Z,73.44
